aviador You're here:

KRIW Decoded Metar

RIVERTON in WY, USA
Report Time2018-05-23 15:53:00
UTC Time2018-05-23 16:24:45
Flight Rules vfr VFR
WindVRB at 03 kt
Visibility9999 m
Phenomena:N/A
Clouds:N/A
Expected CloudBase > 2,000 ft AGL from Temp-Dew spread
CeilingNone
Temp13°C (ISA +9)
Dew Point08°C (72% RH)
AAT11.5°C
QNH1015 hPa
Density Alt6,719 ft
Elevation5,568 ft
Report Wrong Elevation
Raw Report
KRIW 231553Z AUTO VRB03KT 10SM CLR 13/08 A2997 RMK AO2 SLP112
T01280078=

Extra information for KRIW:More info

Metar Taf Metar & Taf Last 4 Metars F.Rules Stats Wind Profile Meteogram Temp Stats Airport Information Weather charts Add Link Nearby VenuesMetar ALERT Operation Metar Decoded Social comments

AIRNAV info for KRIW